sensor_id;sensor_type;location;lat;lon;timestamp;P1;durP1;ratioP1;P2;durP2;ratioP2
28070;SDS011;15383;48.408;9.968;2023-11-18T04:02:03;3.90;;;2.50;;
28070;SDS011;15383;48.408;9.968;2023-11-18T04:04:28;4.22;;;3.10;;
28070;SDS011;15383;48.408;9.968;2023-11-18T04:06:55;2.80;;;2.40;;
28070;SDS011;15383;48.408;9.968;2023-11-18T04:09:20;2.50;;;2.22;;
28070;SDS011;15383;48.408;9.968;2023-11-18T04:11:46;2.50;;;2.17;;
28070;SDS011;15383;48.408;9.968;2023-11-18T04:14:11;2.95;;;2.10;;
28070;SDS011;15383;48.408;9.968;2023-11-18T04:16:37;3.13;;;2.30;;
28070;SDS011;15383;48.408;9.968;2023-11-18T04:19:03;2.50;;;1.88;;
28070;SDS011;15383;48.408;9.968;2023-11-18T04:21:29;3.05;;;2.00;;
28070;SDS011;15383;48.408;9.968;2023-11-18T04:23:54;3.70;;;2.35;;
28070;SDS011;15383;48.408;9.968;2023-11-18T04:26:20;5.72;;;2.28;;
28070;SDS011;15383;48.408;9.968;2023-11-18T04:28:46;2.53;;;2.30;;
28070;SDS011;15383;48.408;9.968;2023-11-18T04:31:11;5.93;;;2.30;;
28070;SDS011;15383;48.408;9.968;2023-11-18T04:33:37;2.25;;;2.00;;
28070;SDS011;15383;48.408;9.968;2023-11-18T04:36:05;2.63;;;2.20;;
28070;SDS011;15383;48.408;9.968;2023-11-18T04:38:34;2.83;;;2.20;;
28070;SDS011;15383;48.408;9.968;2023-11-18T04:41:00;2.92;;;2.25;;
28070;SDS011;15383;48.408;9.968;2023-11-18T04:43:28;2.33;;;2.10;;
28070;SDS011;15383;48.408;9.968;2023-11-18T04:45:55;3.05;;;2.40;;
28070;SDS011;15383;48.408;9.968;2023-11-18T04:48:20;2.28;;;2.00;;
28070;SDS011;15383;48.408;9.968;2023-11-18T04:50:46;2.90;;;2.30;;
28070;SDS011;15383;48.408;9.968;2023-11-18T04:53:12;3.25;;;2.50;;
28070;SDS011;15383;48.408;9.968;2023-11-18T04:55:38;3.63;;;1.95;;
28070;SDS011;15383;48.408;9.968;2023-11-18T04:58:03;3.53;;;2.38;;
28070;SDS011;15383;48.408;9.968;2023-11-18T05:00:31;2.78;;;2.17;;
28070;SDS011;15383;48.408;9.968;2023-11-18T05:02:57;5.60;;;1.92;;
28070;SDS011;15383;48.408;9.968;2023-11-18T05:05:23;3.20;;;2.40;;
28070;SDS011;15383;48.408;9.968;2023-11-18T05:07:49;3.92;;;2.15;;
28070;SDS011;15383;48.408;9.968;2023-11-18T05:10:14;3.13;;;2.17;;
28070;SDS011;15383;48.408;9.968;2023-11-18T05:12:40;3.70;;;2.05;;
28070;SDS011;15383;48.408;9.968;2023-11-18T05:15:06;2.20;;;1.95;;
28070;SDS011;15383;48.408;9.968;2023-11-18T05:17:35;3.08;;;2.30;;
28070;SDS011;15383;48.408;9.968;2023-11-18T05:20:02;5.70;;;2.22;;
28070;SDS011;15383;48.408;9.968;2023-11-18T05:22:29;3.40;;;2.15;;
28070;SDS011;15383;48.408;9.968;2023-11-18T05:24:54;2.72;;;2.30;;
28070;SDS011;15383;48.408;9.968;2023-11-18T05:27:20;2.92;;;2.17;;
28070;SDS011;15383;48.408;9.968;2023-11-18T05:29:45;3.72;;;2.38;;
28070;SDS011;15383;48.408;9.968;2023-11-18T05:32:13;4.82;;;1.65;;
28070;SDS011;15383;48.408;9.968;2023-11-18T05:34:39;1.83;;;1.63;;
28070;SDS011;15383;48.408;9.968;2023-11-18T05:37:04;3.80;;;2.22;;
28070;SDS011;15383;48.408;9.968;2023-11-18T05:39:30;2.60;;;2.10;;
28070;SDS011;15383;48.408;9.968;2023-11-18T05:41:59;2.25;;;1.83;;
28070;SDS011;15383;48.408;9.968;2023-11-18T05:44:24;3.15;;;2.17;;
28070;SDS011;15383;48.408;9.968;2023-11-18T05:46:56;2.53;;;2.28;;
28070;SDS011;15383;48.408;9.968;2023-11-18T05:49:22;2.40;;;2.13;;
28070;SDS011;15383;48.408;9.968;2023-11-18T05:51:49;3.20;;;2.22;;
28070;SDS011;15383;48.408;9.968;2023-11-18T05:54:16;1.85;;;1.67;;
28070;SDS011;15383;48.408;9.968;2023-11-18T05:56:42;2.97;;;2.22;;
28070;SDS011;15383;48.408;9.968;2023-11-18T05:59:08;3.00;;;2.10;;
28070;SDS011;15383;48.408;9.968;2023-11-18T06:01:33;3.67;;;2.33;;
28070;SDS011;15383;48.408;9.968;2023-11-18T06:03:59;3.03;;;2.70;;
28070;SDS011;15383;48.408;9.968;2023-11-18T06:06:26;6.88;;;2.47;;
28070;SDS011;15383;48.408;9.968;2023-11-18T06:08:51;3.85;;;2.45;;
28070;SDS011;15383;48.408;9.968;2023-11-18T06:11:18;3.13;;;2.47;;
28070;SDS011;15383;48.408;9.968;2023-11-18T06:13:51;3.30;;;2.15;;
28070;SDS011;15383;48.408;9.968;2023-11-18T06:16:18;4.15;;;3.03;;
28070;SDS011;15383;48.408;9.968;2023-11-18T06:18:52;4.13;;;2.53;;
28070;SDS011;15383;48.408;9.968;2023-11-18T06:21:23;3.85;;;2.50;;
28070;SDS011;15383;48.408;9.968;2023-11-18T06:23:50;4.75;;;2.90;;
28070;SDS011;15383;48.408;9.968;2023-11-18T06:26:16;5.15;;;3.10;;
28070;SDS011;15383;48.408;9.968;2023-11-18T06:28:43;4.30;;;2.53;;
28070;SDS011;15383;48.408;9.968;2023-11-18T06:31:09;3.50;;;2.65;;
28070;SDS011;15383;48.408;9.968;2023-11-18T06:33:40;7.25;;;3.15;;
28070;SDS011;15383;48.408;9.968;2023-11-18T06:36:09;3.72;;;2.70;;
28070;SDS011;15383;48.408;9.968;2023-11-18T06:38:38;4.47;;;3.05;;
28070;SDS011;15383;48.408;9.968;2023-11-18T06:41:03;1.48;;;1.25;;
28070;SDS011;15383;48.408;9.968;2023-11-18T06:43:30;1.02;;;0.93;;
28070;SDS011;15383;48.408;9.968;2023-11-18T06:46:14;2.30;;;1.40;;
28070;SDS011;15383;48.408;9.968;2023-11-18T06:48:39;7.07;;;1.80;;
28070;SDS011;15383;48.408;9.968;2023-11-18T06:51:05;1.55;;;1.08;;
28070;SDS011;15383;48.408;9.968;2023-11-18T06:53:33;3.75;;;2.20;;
28070;SDS011;15383;48.408;9.968;2023-11-18T06:55:59;2.15;;;1.90;;
28070;SDS011;15383;48.408;9.968;2023-11-18T06:58:25;2.15;;;1.95;;
28070;SDS011;15383;48.408;9.968;2023-11-18T07:00:50;3.55;;;2.65;;
28070;SDS011;15383;48.408;9.968;2023-11-18T07:03:16;2.38;;;2.17;;
28070;SDS011;15383;48.408;9.968;2023-11-18T07:05:41;2.35;;;1.98;;
28070;SDS011;15383;48.408;9.968;2023-11-18T07:08:08;3.33;;;2.30;;
28070;SDS011;15383;48.408;9.968;2023-11-18T07:10:33;3.20;;;2.30;;
28070;SDS011;15383;48.408;9.968;2023-11-18T07:13:00;4.43;;;2.70;;
28070;SDS011;15383;48.408;9.968;2023-11-18T07:15:25;5.03;;;2.70;;
28070;SDS011;15383;48.408;9.968;2023-11-18T07:17:51;4.38;;;2.58;;
28070;SDS011;15383;48.408;9.968;2023-11-18T07:20:16;3.35;;;2.45;;
28070;SDS011;15383;48.408;9.968;2023-11-18T07:22:42;5.28;;;2.70;;
28070;SDS011;15383;48.408;9.968;2023-11-18T07:25:08;4.15;;;2.72;;
28070;SDS011;15383;48.408;9.968;2023-11-18T07:27:34;4.40;;;2.90;;
28070;SDS011;15383;48.408;9.968;2023-11-18T07:30:01;4.47;;;2.72;;
28070;SDS011;15383;48.408;9.968;2023-11-18T07:32:26;3.55;;;2.60;;
28070;SDS011;15383;48.408;9.968;2023-11-18T07:34:52;3.60;;;2.72;;
28070;SDS011;15383;48.408;9.968;2023-11-18T07:37:20;4.57;;;3.25;;
28070;SDS011;15383;48.408;9.968;2023-11-18T07:39:46;4.50;;;3.17;;
28070;SDS011;15383;48.408;9.968;2023-11-18T07:42:13;4.65;;;3.35;;
28070;SDS011;15383;48.408;9.968;2023-11-18T07:44:39;5.65;;;3.38;;
28070;SDS011;15383;48.408;9.968;2023-11-18T07:47:05;5.97;;;3.75;;
28070;SDS011;15383;48.408;9.968;2023-11-18T07:49:32;6.22;;;4.30;;
28070;SDS011;15383;48.408;9.968;2023-11-18T07:52:00;5.20;;;3.65;;
28070;SDS011;15383;48.408;9.968;2023-11-18T07:54:26;7.80;;;4.05;;
28070;SDS011;15383;48.408;9.968;2023-11-18T07:56:52;8.55;;;5.30;;
28070;SDS011;15383;48.408;9.968;2023-11-18T07:59:19;7.13;;;4.43;;
28070;SDS011;15383;48.408;9.968;2023-11-18T08:01:45;10.48;;;4.60;;
28070;SDS011;15383;48.408;9.968;2023-11-18T08:04:11;5.97;;;4.43;;
28070;SDS011;15383;48.408;9.968;2023-11-18T08:06:42;7.75;;;4.95;;
28070;SDS011;15383;48.408;9.968;2023-11-18T08:09:11;8.60;;;5.53;;
28070;SDS011;15383;48.408;9.968;2023-11-18T08:11:39;9.88;;;5.78;;
28070;SDS011;15383;48.408;9.968;2023-11-18T08:14:09;10.10;;;5.70;;
28070;SDS011;15383;48.408;9.968;2023-11-18T08:16:35;10.23;;;5.88;;
28070;SDS011;15383;48.408;9.968;2023-11-18T08:19:01;8.90;;;5.35;;
28070;SDS011;15383;48.408;9.968;2023-11-18T08:21:33;10.80;;;5.88;;
28070;SDS011;15383;48.408;9.968;2023-11-18T08:23:59;12.50;;;5.90;;
28070;SDS011;15383;48.408;9.968;2023-11-18T08:26:25;11.05;;;5.93;;
28070;SDS011;15383;48.408;9.968;2023-11-18T08:28:51;8.95;;;6.50;;
28070;SDS011;15383;48.408;9.968;2023-11-18T08:31:16;10.43;;;6.57;;
28070;SDS011;15383;48.408;9.968;2023-11-18T08:33:42;9.70;;;6.13;;
28070;SDS011;15383;48.408;9.968;2023-11-18T08:36:08;11.02;;;6.63;;
28070;SDS011;15383;48.408;9.968;2023-11-18T08:38:34;8.10;;;6.03;;
28070;SDS011;15383;48.408;9.968;2023-11-18T08:41:00;12.45;;;6.72;;
28070;SDS011;15383;48.408;9.968;2023-11-18T08:43:26;10.10;;;5.93;;
28070;SDS011;15383;48.408;9.968;2023-11-18T08:45:53;11.95;;;6.63;;
28070;SDS011;15383;48.408;9.968;2023-11-18T08:48:19;11.25;;;6.22;;
28070;SDS011;15383;48.408;9.968;2023-11-18T08:50:45;10.95;;;6.40;;
28070;SDS011;15383;48.408;9.968;2023-11-18T08:53:11;11.57;;;6.53;;
28070;SDS011;15383;48.408;9.968;2023-11-18T08:55:37;9.52;;;5.95;;
28070;SDS011;15383;48.408;9.968;2023-11-18T08:58:04;11.85;;;6.55;;
28070;SDS011;15383;48.408;9.968;2023-11-18T09:00:41;11.68;;;6.15;;
28070;SDS011;15383;48.408;9.968;2023-11-18T09:03:16;12.07;;;6.80;;
28070;SDS011;15383;48.408;9.968;2023-11-18T09:05:49;10.68;;;6.40;;
28070;SDS011;15383;48.408;9.968;2023-11-18T09:08:29;10.43;;;5.85;;
28070;SDS011;15383;48.408;9.968;2023-11-18T09:11:03;9.55;;;5.82;;
28070;SDS011;15383;48.408;9.968;2023-11-18T09:13:30;10.63;;;5.72;;
28070;SDS011;15383;48.408;9.968;2023-11-18T09:16:00;12.15;;;6.00;;
28070;SDS011;15383;48.408;9.968;2023-11-18T09:18:27;8.30;;;5.10;;
28070;SDS011;15383;48.408;9.968;2023-11-18T09:20:55;9.73;;;5.68;;
28070;SDS011;15383;48.408;9.968;2023-11-18T09:23:21;10.63;;;6.18;;
28070;SDS011;15383;48.408;9.968;2023-11-18T09:25:48;12.98;;;6.18;;
28070;SDS011;15383;48.408;9.968;2023-11-18T09:28:15;10.27;;;5.72;;
28070;SDS011;15383;48.408;9.968;2023-11-18T09:30:50;10.70;;;6.00;;
28070;SDS011;15383;48.408;9.968;2023-11-18T09:33:21;10.00;;;5.45;;
28070;SDS011;15383;48.408;9.968;2023-11-18T09:35:53;10.10;;;5.90;;
28070;SDS011;15383;48.408;9.968;2023-11-18T09:38:23;9.73;;;5.72;;
28070;SDS011;15383;48.408;9.968;2023-11-18T09:40:50;9.43;;;6.10;;
28070;SDS011;15383;48.408;9.968;2023-11-18T09:43:18;10.07;;;6.20;;
28070;SDS011;15383;48.408;9.968;2023-11-18T09:45:45;9.25;;;5.70;;
28070;SDS011;15383;48.408;9.968;2023-11-18T09:48:13;10.43;;;5.68;;
28070;SDS011;15383;48.408;9.968;2023-11-18T09:50:43;13.52;;;6.57;;
28070;SDS011;15383;48.408;9.968;2023-11-18T09:53:12;12.73;;;6.23;;
28070;SDS011;15383;48.408;9.968;2023-11-18T09:56:12;10.27;;;6.05;;
28070;SDS011;15383;48.408;9.968;2023-11-18T09:58:41;11.90;;;5.97;;
28070;SDS011;15383;48.408;9.968;2023-11-18T10:01:14;10.23;;;6.20;;
28070;SDS011;15383;48.408;9.968;2023-11-18T10:03:43;10.45;;;6.38;;
28070;SDS011;15383;48.408;9.968;2023-11-18T10:06:11;12.13;;;7.00;;
28070;SDS011;15383;48.408;9.968;2023-11-18T10:08:39;11.45;;;6.70;;
28070;SDS011;15383;48.408;9.968;2023-11-18T10:11:05;10.40;;;6.57;;
28070;SDS011;15383;48.408;9.968;2023-11-18T10:13:34;15.05;;;7.20;;
28070;SDS011;15383;48.408;9.968;2023-11-18T10:16:05;14.95;;;7.85;;
28070;SDS011;15383;48.408;9.968;2023-11-18T10:18:34;11.73;;;7.32;;
28070;SDS011;15383;48.408;9.968;2023-11-18T10:21:01;16.48;;;8.80;;
28070;SDS011;15383;48.408;9.968;2023-11-18T10:23:29;12.15;;;7.70;;
28070;SDS011;15383;48.408;9.968;2023-11-18T10:25:58;19.13;;;8.80;;
28070;SDS011;15383;48.408;9.968;2023-11-18T10:28:26;17.13;;;8.50;;
28070;SDS011;15383;48.408;9.968;2023-11-18T10:30:53;15.88;;;8.52;;
28070;SDS011;15383;48.408;9.968;2023-11-18T10:33:22;14.73;;;7.65;;
28070;SDS011;15383;48.408;9.968;2023-11-18T10:35:55;14.52;;;8.50;;
28070;SDS011;15383;48.408;9.968;2023-11-18T10:38:22;16.63;;;8.73;;
28070;SDS011;15383;48.408;9.968;2023-11-18T10:40:53;13.20;;;8.40;;
28070;SDS011;15383;48.408;9.968;2023-11-18T10:43:23;13.55;;;8.07;;
28070;SDS011;15383;48.408;9.968;2023-11-18T10:45:54;19.60;;;7.82;;
28070;SDS011;15383;48.408;9.968;2023-11-18T10:48:32;12.40;;;7.97;;
28070;SDS011;15383;48.408;9.968;2023-11-18T10:50:58;13.63;;;7.82;;
28070;SDS011;15383;48.408;9.968;2023-11-18T10:53:24;12.05;;;7.45;;
28070;SDS011;15383;48.408;9.968;2023-11-18T10:55:51;14.35;;;7.53;;
28070;SDS011;15383;48.408;9.968;2023-11-18T10:58:17;14.45;;;7.85;;
28070;SDS011;15383;48.408;9.968;2023-11-18T11:00:50;11.73;;;7.32;;
28070;SDS011;15383;48.408;9.968;2023-11-18T11:03:25;13.43;;;6.72;;
28070;SDS011;15383;48.408;9.968;2023-11-18T11:05:51;13.10;;;7.97;;
28070;SDS011;15383;48.408;9.968;2023-11-18T11:08:19;15.48;;;7.68;;
28070;SDS011;15383;48.408;9.968;2023-11-18T11:10:45;13.77;;;8.05;;
28070;SDS011;15383;48.408;9.968;2023-11-18T11:13:13;13.68;;;7.45;;
28070;SDS011;15383;48.408;9.968;2023-11-18T11:15:43;15.90;;;7.72;;
28070;SDS011;15383;48.408;9.968;2023-11-18T11:18:14;13.05;;;7.63;;
28070;SDS011;15383;48.408;9.968;2023-11-18T11:23:47;14.55;;;8.13;;
28070;SDS011;15383;48.408;9.968;2023-11-18T11:26:50;13.10;;;7.97;;
28070;SDS011;15383;48.408;9.968;2023-11-18T11:29:25;15.13;;;8.25;;
28070;SDS011;15383;48.408;9.968;2023-11-18T11:34:53;13.75;;;8.32;;
28070;SDS011;15383;48.408;9.968;2023-11-18T11:37:22;16.88;;;9.23;;
28070;SDS011;15383;48.408;9.968;2023-11-18T11:39:50;13.45;;;8.80;;
28070;SDS011;15383;48.408;9.968;2023-11-18T11:42:18;15.45;;;8.38;;
28070;SDS011;15383;48.408;9.968;2023-11-18T11:44:46;13.43;;;8.07;;
28070;SDS011;15383;48.408;9.968;2023-11-18T11:47:13;15.70;;;8.75;;
28070;SDS011;15383;48.408;9.968;2023-11-18T11:50:00;15.90;;;8.65;;
28070;SDS011;15383;48.408;9.968;2023-11-18T11:52:40;12.55;;;8.02;;
28070;SDS011;15383;48.408;9.968;2023-11-18T11:55:15;15.52;;;8.10;;
28070;SDS011;15383;48.408;9.968;2023-11-18T11:57:53;13.77;;;8.35;;
28070;SDS011;15383;48.408;9.968;2023-11-18T12:00:23;12.95;;;8.52;;
28070;SDS011;15383;48.408;9.968;2023-11-18T12:02:51;11.30;;;7.57;;
28070;SDS011;15383;48.408;9.968;2023-11-18T12:05:19;14.95;;;9.00;;
28070;SDS011;15383;48.408;9.968;2023-11-18T12:07:54;10.80;;;6.80;;
28070;SDS011;15383;48.408;9.968;2023-11-18T12:10:20;12.90;;;7.70;;
28070;SDS011;15383;48.408;9.968;2023-11-18T12:12:47;11.75;;;7.70;;
28070;SDS011;15383;48.408;9.968;2023-11-18T12:15:13;11.93;;;7.00;;
28070;SDS011;15383;48.408;9.968;2023-11-18T12:23:12;9.85;;;6.38;;
28070;SDS011;15383;48.408;9.968;2023-11-18T12:25:46;10.93;;;6.95;;
28070;SDS011;15383;48.408;9.968;2023-11-18T12:28:19;9.50;;;6.72;;
28070;SDS011;15383;48.408;9.968;2023-11-18T12:30:54;13.40;;;6.55;;
28070;SDS011;15383;48.408;9.968;2023-11-18T12:33:21;12.27;;;6.30;;
28070;SDS011;15383;48.408;9.968;2023-11-18T12:39:01;10.00;;;6.25;;
28070;SDS011;15383;48.408;9.968;2023-11-18T12:44:14;9.00;;;5.78;;
28070;SDS011;15383;48.408;9.968;2023-11-18T12:46:47;13.85;;;7.13;;
28070;SDS011;15383;48.408;9.968;2023-11-18T12:49:35;9.98;;;5.85;;
28070;SDS011;15383;48.408;9.968;2023-11-18T12:52:06;10.23;;;6.25;;
28070;SDS011;15383;48.408;9.968;2023-11-18T12:54:33;11.98;;;5.90;;
28070;SDS011;15383;48.408;9.968;2023-11-18T12:57:03;10.20;;;6.35;;
28070;SDS011;15383;48.408;9.968;2023-11-18T12:59:32;15.20;;;6.68;;
28070;SDS011;15383;48.408;9.968;2023-11-18T13:01:59;12.05;;;5.65;;
28070;SDS011;15383;48.408;9.968;2023-11-18T13:04:29;8.35;;;4.88;;
28070;SDS011;15383;48.408;9.968;2023-11-18T13:06:55;10.40;;;5.82;;
28070;SDS011;15383;48.408;9.968;2023-11-18T13:09:23;10.20;;;5.15;;
28070;SDS011;15383;48.408;9.968;2023-11-18T13:11:55;13.18;;;5.80;;
28070;SDS011;15383;48.408;9.968;2023-11-18T13:14:26;10.48;;;5.50;;
28070;SDS011;15383;48.408;9.968;2023-11-18T13:16:53;10.23;;;5.80;;
28070;SDS011;15383;48.408;9.968;2023-11-18T13:19:25;9.05;;;5.47;;
28070;SDS011;15383;48.408;9.968;2023-11-18T13:21:57;7.75;;;5.13;;
28070;SDS011;15383;48.408;9.968;2023-11-18T13:24:24;6.23;;;4.33;;
28070;SDS011;15383;48.408;9.968;2023-11-18T13:26:55;8.70;;;5.00;;
28070;SDS011;15383;48.408;9.968;2023-11-18T13:29:22;8.15;;;4.95;;
28070;SDS011;15383;48.408;9.968;2023-11-18T13:31:49;7.70;;;4.97;;
28070;SDS011;15383;48.408;9.968;2023-11-18T13:34:18;9.13;;;5.30;;
28070;SDS011;15383;48.408;9.968;2023-11-18T13:36:47;10.35;;;5.22;;
28070;SDS011;15383;48.408;9.968;2023-11-18T13:39:18;7.80;;;5.10;;
28070;SDS011;15383;48.408;9.968;2023-11-18T13:41:48;9.07;;;4.43;;
28070;SDS011;15383;48.408;9.968;2023-11-18T13:46:59;8.00;;;4.65;;
28070;SDS011;15383;48.408;9.968;2023-11-18T13:49:28;8.90;;;5.22;;
28070;SDS011;15383;48.408;9.968;2023-11-18T13:51:54;6.93;;;4.45;;
28070;SDS011;15383;48.408;9.968;2023-11-18T13:54:21;8.02;;;5.10;;
28070;SDS011;15383;48.408;9.968;2023-11-18T13:56:47;10.90;;;5.45;;
28070;SDS011;15383;48.408;9.968;2023-11-18T13:59:14;7.97;;;5.28;;
28070;SDS011;15383;48.408;9.968;2023-11-18T14:01:40;6.43;;;4.45;;
28070;SDS011;15383;48.408;9.968;2023-11-18T14:04:06;14.23;;;5.32;;
28070;SDS011;15383;48.408;9.968;2023-11-18T14:06:35;9.43;;;5.57;;
28070;SDS011;15383;48.408;9.968;2023-11-18T14:09:00;8.88;;;4.88;;
28070;SDS011;15383;48.408;9.968;2023-11-18T14:11:26;11.07;;;5.15;;
28070;SDS011;15383;48.408;9.968;2023-11-18T14:13:51;8.85;;;4.75;;
28070;SDS011;15383;48.408;9.968;2023-11-18T14:16:18;11.52;;;4.53;;
28070;SDS011;15383;48.408;9.968;2023-11-18T14:18:46;12.48;;;4.80;;
28070;SDS011;15383;48.408;9.968;2023-11-18T14:21:13;10.65;;;4.88;;
28070;SDS011;15383;48.408;9.968;2023-11-18T14:23:39;6.25;;;4.32;;
28070;SDS011;15383;48.408;9.968;2023-11-18T14:26:05;13.73;;;4.75;;
28070;SDS011;15383;48.408;9.968;2023-11-18T14:28:32;6.90;;;4.78;;
28070;SDS011;15383;48.408;9.968;2023-11-18T14:30:59;8.63;;;4.90;;
28070;SDS011;15383;48.408;9.968;2023-11-18T14:33:26;7.03;;;3.95;;
28070;SDS011;15383;48.408;9.968;2023-11-18T14:35:53;10.77;;;4.72;;
28070;SDS011;15383;48.408;9.968;2023-11-18T14:38:18;7.70;;;3.97;;
28070;SDS011;15383;48.408;9.968;2023-11-18T14:40:45;13.13;;;5.13;;
28070;SDS011;15383;48.408;9.968;2023-11-18T14:43:14;5.38;;;3.25;;
28070;SDS011;15383;48.408;9.968;2023-11-18T14:45:40;8.05;;;3.10;;
28070;SDS011;15383;48.408;9.968;2023-11-18T14:48:05;7.38;;;3.90;;
28070;SDS011;15383;48.408;9.968;2023-11-18T14:50:31;6.15;;;3.97;;
28070;SDS011;15383;48.408;9.968;2023-11-18T14:52:56;8.23;;;4.07;;
28070;SDS011;15383;48.408;9.968;2023-11-18T14:55:28;7.90;;;4.45;;
28070;SDS011;15383;48.408;9.968;2023-11-18T14:57:54;7.50;;;4.63;;
28070;SDS011;15383;48.408;9.968;2023-11-18T15:00:20;9.43;;;4.13;;
28070;SDS011;15383;48.408;9.968;2023-11-18T15:02:51;6.53;;;4.70;;
28070;SDS011;15383;48.408;9.968;2023-11-18T15:05:18;5.68;;;4.03;;
28070;SDS011;15383;48.408;9.968;2023-11-18T15:07:48;10.77;;;4.68;;
28070;SDS011;15383;48.408;9.968;2023-11-18T15:10:19;9.20;;;4.90;;
28070;SDS011;15383;48.408;9.968;2023-11-18T15:12:53;6.32;;;4.25;;
28070;SDS011;15383;48.408;9.968;2023-11-18T15:15:20;7.13;;;4.65;;
28070;SDS011;15383;48.408;9.968;2023-11-18T15:17:46;9.93;;;4.32;;
28070;SDS011;15383;48.408;9.968;2023-11-18T15:20:13;8.90;;;4.00;;
28070;SDS011;15383;48.408;9.968;2023-11-18T15:22:48;6.57;;;3.90;;
28070;SDS011;15383;48.408;9.968;2023-11-18T15:25:14;5.72;;;3.95;;
28070;SDS011;15383;48.408;9.968;2023-11-18T15:27:42;9.70;;;4.65;;
28070;SDS011;15383;48.408;9.968;2023-11-18T15:30:09;7.80;;;4.07;;
28070;SDS011;15383;48.408;9.968;2023-11-18T15:32:44;6.97;;;3.85;;
28070;SDS011;15383;48.408;9.968;2023-11-18T15:35:11;6.38;;;3.83;;
28070;SDS011;15383;48.408;9.968;2023-11-18T15:37:39;6.30;;;3.60;;
28070;SDS011;15383;48.408;9.968;2023-11-18T15:40:11;8.63;;;3.78;;
28070;SDS011;15383;48.408;9.968;2023-11-18T15:42:39;5.90;;;4.00;;
28070;SDS011;15383;48.408;9.968;2023-11-18T15:45:09;7.65;;;3.67;;
28070;SDS011;15383;48.408;9.968;2023-11-18T15:47:39;8.55;;;3.22;;
28070;SDS011;15383;48.408;9.968;2023-11-18T15:50:07;4.85;;;3.45;;
28070;SDS011;15383;48.408;9.968;2023-11-18T15:52:40;6.72;;;3.63;;
28070;SDS011;15383;48.408;9.968;2023-11-18T15:55:06;6.57;;;3.78;;
28070;SDS011;15383;48.408;9.968;2023-11-18T15:57:38;7.20;;;3.58;;
28070;SDS011;15383;48.408;9.968;2023-11-18T16:00:07;7.30;;;4.00;;
28070;SDS011;15383;48.408;9.968;2023-11-18T16:02:40;5.57;;;3.72;;
28070;SDS011;15383;48.408;9.968;2023-11-18T16:05:13;8.35;;;4.05;;
28070;SDS011;15383;48.408;9.968;2023-11-18T16:07:50;7.78;;;4.18;;
28070;SDS011;15383;48.408;9.968;2023-11-18T16:10:16;6.63;;;3.95;;
28070;SDS011;15383;48.408;9.968;2023-11-18T16:12:45;7.72;;;4.60;;
28070;SDS011;15383;48.408;9.968;2023-11-18T16:15:16;8.68;;;4.18;;
28070;SDS011;15383;48.408;9.968;2023-11-18T16:17:44;5.75;;;4.50;;
28070;SDS011;15383;48.408;9.968;2023-11-18T16:20:14;9.05;;;4.63;;
28070;SDS011;15383;48.408;9.968;2023-11-18T16:22:44;8.77;;;4.90;;
28070;SDS011;15383;48.408;9.968;2023-11-18T16:25:22;8.23;;;4.63;;
28070;SDS011;15383;48.408;9.968;2023-11-18T16:27:52;6.90;;;4.27;;
28070;SDS011;15383;48.408;9.968;2023-11-18T16:30:21;5.88;;;4.18;;
28070;SDS011;15383;48.408;9.968;2023-11-18T16:32:49;11.00;;;4.70;;
28070;SDS011;15383;48.408;9.968;2023-11-18T16:35:19;6.25;;;4.38;;
28070;SDS011;15383;48.408;9.968;2023-11-18T16:37:45;8.38;;;4.80;;
28070;SDS011;15383;48.408;9.968;2023-11-18T16:40:14;7.22;;;4.25;;
28070;SDS011;15383;48.408;9.968;2023-11-18T16:42:41;6.43;;;4.17;;
28070;SDS011;15383;48.408;9.968;2023-11-18T16:45:14;7.07;;;4.72;;
28070;SDS011;15383;48.408;9.968;2023-11-18T16:47:41;10.18;;;4.57;;
28070;SDS011;15383;48.408;9.968;2023-11-18T16:50:08;7.80;;;4.13;;
28070;SDS011;15383;48.408;9.968;2023-11-18T16:52:35;6.25;;;4.55;;
28070;SDS011;15383;48.408;9.968;2023-11-18T16:55:02;7.15;;;4.80;;
28070;SDS011;15383;48.408;9.968;2023-11-18T16:57:28;8.90;;;4.20;;
28070;SDS011;15383;48.408;9.968;2023-11-18T16:59:53;5.35;;;3.92;;
28070;SDS011;15383;48.408;9.968;2023-11-18T17:02:20;8.77;;;4.10;;
28070;SDS011;15383;48.408;9.968;2023-11-18T17:04:47;6.30;;;3.97;;
28070;SDS011;15383;48.408;9.968;2023-11-18T17:07:13;6.40;;;4.18;;
28070;SDS011;15383;48.408;9.968;2023-11-18T17:09:39;6.47;;;3.92;;
28070;SDS011;15383;48.408;9.968;2023-11-18T17:12:05;5.35;;;3.75;;
28070;SDS011;15383;48.408;9.968;2023-11-18T17:14:31;5.53;;;3.50;;
28070;SDS011;15383;48.408;9.968;2023-11-18T17:16:57;6.53;;;4.07;;
28070;SDS011;15383;48.408;9.968;2023-11-18T17:19:23;5.93;;;3.97;;
28070;SDS011;15383;48.408;9.968;2023-11-18T17:21:48;5.60;;;3.60;;
28070;SDS011;15383;48.408;9.968;2023-11-18T17:24:14;4.68;;;3.47;;
28070;SDS011;15383;48.408;9.968;2023-11-18T17:26:39;4.88;;;3.38;;
28070;SDS011;15383;48.408;9.968;2023-11-18T17:29:05;6.15;;;3.50;;
28070;SDS011;15383;48.408;9.968;2023-11-18T17:31:31;6.80;;;3.78;;
28070;SDS011;15383;48.408;9.968;2023-11-18T17:33:58;6.57;;;4.03;;
28070;SDS011;15383;48.408;9.968;2023-11-18T17:36:24;7.57;;;3.78;;
28070;SDS011;15383;48.408;9.968;2023-11-18T17:38:50;5.47;;;3.47;;
28070;SDS011;15383;48.408;9.968;2023-11-18T17:41:16;4.43;;;3.75;;
28070;SDS011;15383;48.408;9.968;2023-11-18T17:43:44;6.18;;;3.80;;
28070;SDS011;15383;48.408;9.968;2023-11-18T17:46:10;5.00;;;3.45;;
28070;SDS011;15383;48.408;9.968;2023-11-18T17:48:35;6.93;;;3.65;;
28070;SDS011;15383;48.408;9.968;2023-11-18T17:51:01;7.68;;;3.67;;
28070;SDS011;15383;48.408;9.968;2023-11-18T17:53:26;5.50;;;3.65;;
28070;SDS011;15383;48.408;9.968;2023-11-18T17:55:52;6.15;;;3.22;;
28070;SDS011;15383;48.408;9.968;2023-11-18T17:58:18;6.88;;;3.47;;
28070;SDS011;15383;48.408;9.968;2023-11-18T18:00:43;4.82;;;3.47;;
28070;SDS011;15383;48.408;9.968;2023-11-18T18:03:09;5.97;;;3.70;;
28070;SDS011;15383;48.408;9.968;2023-11-18T18:05:35;9.15;;;3.55;;
28070;SDS011;15383;48.408;9.968;2023-11-18T18:08:01;5.82;;;3.58;;
28070;SDS011;15383;48.408;9.968;2023-11-18T18:10:26;10.25;;;3.78;;
28070;SDS011;15383;48.408;9.968;2023-11-18T18:12:53;5.80;;;3.25;;
28070;SDS011;15383;48.408;9.968;2023-11-18T18:15:19;4.03;;;3.20;;
28070;SDS011;15383;48.408;9.968;2023-11-18T18:17:45;4.55;;;3.33;;
28070;SDS011;15383;48.408;9.968;2023-11-18T18:20:12;5.32;;;3.17;;
28070;SDS011;15383;48.408;9.968;2023-11-18T18:22:38;7.07;;;2.72;;
28070;SDS011;15383;48.408;9.968;2023-11-18T18:25:05;5.40;;;3.42;;
28070;SDS011;15383;48.408;9.968;2023-11-18T18:27:32;5.03;;;3.08;;
28070;SDS011;15383;48.408;9.968;2023-11-18T18:30:00;4.57;;;3.13;;
28070;SDS011;15383;48.408;9.968;2023-11-18T18:32:27;5.90;;;3.22;;
28070;SDS011;15383;48.408;9.968;2023-11-18T18:34:53;4.22;;;2.83;;
28070;SDS011;15383;48.408;9.968;2023-11-18T18:37:18;5.45;;;2.90;;
28070;SDS011;15383;48.408;9.968;2023-11-18T18:39:47;7.82;;;3.22;;
28070;SDS011;15383;48.408;9.968;2023-11-18T18:42:16;7.03;;;3.50;;
28070;SDS011;15383;48.408;9.968;2023-11-18T18:44:41;4.68;;;3.05;;
28070;SDS011;15383;48.408;9.968;2023-11-18T18:47:07;7.10;;;3.58;;
28070;SDS011;15383;48.408;9.968;2023-11-18T18:49:33;6.15;;;3.78;;
28070;SDS011;15383;48.408;9.968;2023-11-18T18:51:59;6.40;;;3.70;;
28070;SDS011;15383;48.408;9.968;2023-11-18T18:54:25;9.75;;;4.22;;
28070;SDS011;15383;48.408;9.968;2023-11-18T18:56:50;8.02;;;3.83;;
28070;SDS011;15383;48.408;9.968;2023-11-18T18:59:16;9.75;;;4.75;;
28070;SDS011;15383;48.408;9.968;2023-11-18T19:01:42;10.88;;;4.78;;
28070;SDS011;15383;48.408;9.968;2023-11-18T19:04:10;7.72;;;4.10;;
28070;SDS011;15383;48.408;9.968;2023-11-18T19:06:36;6.85;;;4.38;;
28070;SDS011;15383;48.408;9.968;2023-11-18T19:09:03;7.25;;;3.47;;